sensor_id;sensor_type;location;lat;lon;timestamp;temperature;humidity
46590;DHT22;32313;48.722;9.362;2023-02-03T00:00:39;5.30;99.90
46590;DHT22;32313;48.722;9.362;2023-02-03T00:03:05;5.30;99.90
46590;DHT22;32313;48.722;9.362;2023-02-03T00:05:33;5.30;99.90
46590;DHT22;32313;48.722;9.362;2023-02-03T00:07:58;5.30;99.90
46590;DHT22;32313;48.722;9.362;2023-02-03T00:10:24;5.30;99.90
46590;DHT22;32313;48.722;9.362;2023-02-03T00:12:51;5.30;99.90
46590;DHT22;32313;48.722;9.362;2023-02-03T00:15:20;5.30;99.90
46590;DHT22;32313;48.722;9.362;2023-02-03T00:17:48;5.30;99.90
46590;DHT22;32313;48.722;9.362;2023-02-03T00:20:13;5.30;99.90
46590;DHT22;32313;48.722;9.362;2023-02-03T00:22:39;5.30;99.90
46590;DHT22;32313;48.722;9.362;2023-02-03T00:25:05;5.30;99.90
46590;DHT22;32313;48.722;9.362;2023-02-03T00:27:31;5.20;99.90
46590;DHT22;32313;48.722;9.362;2023-02-03T00:29:57;5.20;99.90
46590;DHT22;32313;48.722;9.362;2023-02-03T00:32:22;5.20;99.90
46590;DHT22;32313;48.722;9.362;2023-02-03T00:34:48;5.20;99.90
46590;DHT22;32313;48.722;9.362;2023-02-03T00:37:14;5.20;99.90
46590;DHT22;32313;48.722;9.362;2023-02-03T00:39:40;5.20;99.90
46590;DHT22;32313;48.722;9.362;2023-02-03T00:42:06;5.20;99.90
46590;DHT22;32313;48.722;9.362;2023-02-03T00:44:31;5.20;99.90
46590;DHT22;32313;48.722;9.362;2023-02-03T00:46:57;5.20;99.90
46590;DHT22;32313;48.722;9.362;2023-02-03T00:49:23;5.20;99.90
46590;DHT22;32313;48.722;9.362;2023-02-03T00:51:49;5.20;99.90
46590;DHT22;32313;48.722;9.362;2023-02-03T00:54:15;5.20;99.90
46590;DHT22;32313;48.722;9.362;2023-02-03T00:56:40;5.20;99.90
46590;DHT22;32313;48.722;9.362;2023-02-03T00:59:06;5.20;99.90
46590;DHT22;32313;48.722;9.362;2023-02-03T01:01:33;5.20;99.90
46590;DHT22;32313;48.722;9.362;2023-02-03T01:03:59;5.20;99.90
46590;DHT22;32313;48.722;9.362;2023-02-03T01:06:26;5.20;99.90
46590;DHT22;32313;48.722;9.362;2023-02-03T01:08:53;5.20;99.90
46590;DHT22;32313;48.722;9.362;2023-02-03T01:11:21;5.30;99.90
46590;DHT22;32313;48.722;9.362;2023-02-03T01:13:47;5.30;99.90
46590;DHT22;32313;48.722;9.362;2023-02-03T01:16:15;5.30;99.90
46590;DHT22;32313;48.722;9.362;2023-02-03T01:18:41;5.30;99.90
46590;DHT22;32313;48.722;9.362;2023-02-03T01:21:17;5.30;99.90
46590;DHT22;32313;48.722;9.362;2023-02-03T01:23:43;5.30;99.90
46590;DHT22;32313;48.722;9.362;2023-02-03T01:26:14;5.30;99.90
46590;DHT22;32313;48.722;9.362;2023-02-03T01:28:41;5.30;99.90
46590;DHT22;32313;48.722;9.362;2023-02-03T01:31:31;5.30;99.90
46590;DHT22;32313;48.722;9.362;2023-02-03T01:33:56;5.20;99.90
46590;DHT22;32313;48.722;9.362;2023-02-03T01:36:24;5.20;99.90
46590;DHT22;32313;48.722;9.362;2023-02-03T01:38:51;5.20;99.90
46590;DHT22;32313;48.722;9.362;2023-02-03T01:41:19;5.20;99.90
46590;DHT22;32313;48.722;9.362;2023-02-03T01:43:48;5.20;99.90
46590;DHT22;32313;48.722;9.362;2023-02-03T01:49:14;5.20;99.90
46590;DHT22;32313;48.722;9.362;2023-02-03T01:51:43;5.20;99.90
46590;DHT22;32313;48.722;9.362;2023-02-03T01:54:13;5.20;99.90
46590;DHT22;32313;48.722;9.362;2023-02-03T01:56:44;5.20;99.90
46590;DHT22;32313;48.722;9.362;2023-02-03T01:59:14;5.20;99.90
46590;DHT22;32313;48.722;9.362;2023-02-03T02:01:40;5.20;99.90
46590;DHT22;32313;48.722;9.362;2023-02-03T02:04:07;5.20;99.90
46590;DHT22;32313;48.722;9.362;2023-02-03T02:06:33;5.20;99.90
46590;DHT22;32313;48.722;9.362;2023-02-03T02:09:00;5.20;99.90
46590;DHT22;32313;48.722;9.362;2023-02-03T02:11:26;5.10;99.90
46590;DHT22;32313;48.722;9.362;2023-02-03T02:13:53;5.10;99.90
46590;DHT22;32313;48.722;9.362;2023-02-03T02:30:29;5.10;99.90
46590;DHT22;32313;48.722;9.362;2023-02-03T02:38:40;5.00;99.90
46590;DHT22;32313;48.722;9.362;2023-02-03T02:41:25;4.90;99.90
46590;DHT22;32313;48.722;9.362;2023-02-03T02:44:09;4.90;99.90
46590;DHT22;32313;48.722;9.362;2023-02-03T02:46:49;4.90;99.90
46590;DHT22;32313;48.722;9.362;2023-02-03T02:49:24;4.80;99.90
46590;DHT22;32313;48.722;9.362;2023-02-03T02:51:54;4.70;99.90
46590;DHT22;32313;48.722;9.362;2023-02-03T02:54:23;4.60;99.90
46590;DHT22;32313;48.722;9.362;2023-02-03T02:56:57;4.60;99.90
46590;DHT22;32313;48.722;9.362;2023-02-03T02:59:26;4.60;99.90
46590;DHT22;32313;48.722;9.362;2023-02-03T03:01:52;4.60;99.90
46590;DHT22;32313;48.722;9.362;2023-02-03T03:04:22;4.60;99.90
46590;DHT22;32313;48.722;9.362;2023-02-03T03:07:12;4.70;99.90
46590;DHT22;32313;48.722;9.362;2023-02-03T03:09:42;4.80;99.90
46590;DHT22;32313;48.722;9.362;2023-02-03T03:12:13;4.80;99.90
46590;DHT22;32313;48.722;9.362;2023-02-03T03:14:44;4.90;99.90
46590;DHT22;32313;48.722;9.362;2023-02-03T03:17:18;5.00;99.90
46590;DHT22;32313;48.722;9.362;2023-02-03T03:19:49;5.00;99.90
46590;DHT22;32313;48.722;9.362;2023-02-03T03:22:16;5.10;99.90
46590;DHT22;32313;48.722;9.362;2023-02-03T03:24:47;5.10;99.90
46590;DHT22;32313;48.722;9.362;2023-02-03T03:27:19;5.10;99.90
46590;DHT22;32313;48.722;9.362;2023-02-03T03:29:53;5.10;99.90
46590;DHT22;32313;48.722;9.362;2023-02-03T03:32:21;5.10;99.90
46590;DHT22;32313;48.722;9.362;2023-02-03T03:34:47;5.10;99.90
46590;DHT22;32313;48.722;9.362;2023-02-03T03:37:22;5.10;99.90
46590;DHT22;32313;48.722;9.362;2023-02-03T03:39:56;5.10;99.90
46590;DHT22;32313;48.722;9.362;2023-02-03T03:42:48;5.20;99.90
46590;DHT22;32313;48.722;9.362;2023-02-03T03:46:03;5.20;99.90
46590;DHT22;32313;48.722;9.362;2023-02-03T03:48:50;5.20;99.90
46590;DHT22;32313;48.722;9.362;2023-02-03T03:51:36;5.20;99.90
46590;DHT22;32313;48.722;9.362;2023-02-03T03:54:07;5.20;99.90
46590;DHT22;32313;48.722;9.362;2023-02-03T03:56:58;5.20;99.90
46590;DHT22;32313;48.722;9.362;2023-02-03T03:59:29;5.20;99.90
46590;DHT22;32313;48.722;9.362;2023-02-03T04:01:56;5.20;99.90
46590;DHT22;32313;48.722;9.362;2023-02-03T04:04:24;5.20;99.90
46590;DHT22;32313;48.722;9.362;2023-02-03T04:06:52;5.20;99.90
46590;DHT22;32313;48.722;9.362;2023-02-03T04:09:19;5.20;99.90
46590;DHT22;32313;48.722;9.362;2023-02-03T04:11:44;5.30;99.90
46590;DHT22;32313;48.722;9.362;2023-02-03T04:14:36;5.30;99.90
46590;DHT22;32313;48.722;9.362;2023-02-03T04:17:05;5.20;99.90
46590;DHT22;32313;48.722;9.362;2023-02-03T04:19:31;5.20;99.90
46590;DHT22;32313;48.722;9.362;2023-02-03T04:21:56;5.30;99.90
46590;DHT22;32313;48.722;9.362;2023-02-03T04:24:22;5.20;99.90
46590;DHT22;32313;48.722;9.362;2023-02-03T04:26:48;5.20;99.90
46590;DHT22;32313;48.722;9.362;2023-02-03T04:29:13;5.10;99.90
46590;DHT22;32313;48.722;9.362;2023-02-03T04:31:39;5.10;99.90
46590;DHT22;32313;48.722;9.362;2023-02-03T04:34:05;5.10;99.90
46590;DHT22;32313;48.722;9.362;2023-02-03T04:36:30;5.10;99.90
46590;DHT22;32313;48.722;9.362;2023-02-03T04:38:56;5.10;99.90
46590;DHT22;32313;48.722;9.362;2023-02-03T04:41:22;5.00;99.90
46590;DHT22;32313;48.722;9.362;2023-02-03T04:43:48;5.00;99.90
46590;DHT22;32313;48.722;9.362;2023-02-03T04:46:13;5.00;99.90
46590;DHT22;32313;48.722;9.362;2023-02-03T04:48:39;5.00;99.90
46590;DHT22;32313;48.722;9.362;2023-02-03T04:51:07;5.00;99.90
46590;DHT22;32313;48.722;9.362;2023-02-03T04:53:33;4.90;99.90
46590;DHT22;32313;48.722;9.362;2023-02-03T04:55:58;4.80;99.90
46590;DHT22;32313;48.722;9.362;2023-02-03T04:58:24;4.80;99.90
46590;DHT22;32313;48.722;9.362;2023-02-03T05:00:53;4.80;99.90
46590;DHT22;32313;48.722;9.362;2023-02-03T05:03:20;4.80;99.90
46590;DHT22;32313;48.722;9.362;2023-02-03T05:05:45;4.80;99.90
46590;DHT22;32313;48.722;9.362;2023-02-03T05:08:11;4.80;99.90
46590;DHT22;32313;48.722;9.362;2023-02-03T05:10:43;4.80;99.90
46590;DHT22;32313;48.722;9.362;2023-02-03T05:13:08;4.70;99.90
46590;DHT22;32313;48.722;9.362;2023-02-03T05:15:34;4.70;99.90
46590;DHT22;32313;48.722;9.362;2023-02-03T05:18:00;4.70;99.90
46590;DHT22;32313;48.722;9.362;2023-02-03T05:20:25;4.60;99.90
46590;DHT22;32313;48.722;9.362;2023-02-03T05:22:52;4.60;99.90
46590;DHT22;32313;48.722;9.362;2023-02-03T05:25:18;4.60;99.90
46590;DHT22;32313;48.722;9.362;2023-02-03T05:27:43;4.60;99.90
46590;DHT22;32313;48.722;9.362;2023-02-03T05:30:10;4.60;99.90
46590;DHT22;32313;48.722;9.362;2023-02-03T05:32:36;4.60;99.90
46590;DHT22;32313;48.722;9.362;2023-02-03T05:35:02;4.60;99.90
46590;DHT22;32313;48.722;9.362;2023-02-03T05:37:28;4.60;99.90
46590;DHT22;32313;48.722;9.362;2023-02-03T05:39:53;4.60;99.90
46590;DHT22;32313;48.722;9.362;2023-02-03T05:42:39;4.70;99.90
46590;DHT22;32313;48.722;9.362;2023-02-03T05:45:05;4.60;99.90
46590;DHT22;32313;48.722;9.362;2023-02-03T05:47:30;4.70;99.90
46590;DHT22;32313;48.722;9.362;2023-02-03T05:49:56;4.70;99.90
46590;DHT22;32313;48.722;9.362;2023-02-03T05:52:22;4.70;99.90
46590;DHT22;32313;48.722;9.362;2023-02-03T05:54:47;4.60;99.90
46590;DHT22;32313;48.722;9.362;2023-02-03T05:57:13;4.60;99.90
46590;DHT22;32313;48.722;9.362;2023-02-03T05:59:39;4.60;99.90
46590;DHT22;32313;48.722;9.362;2023-02-03T06:02:04;4.60;99.90
46590;DHT22;32313;48.722;9.362;2023-02-03T06:04:30;4.50;99.90
46590;DHT22;32313;48.722;9.362;2023-02-03T06:06:55;4.50;99.90
46590;DHT22;32313;48.722;9.362;2023-02-03T06:09:21;4.50;99.90
46590;DHT22;32313;48.722;9.362;2023-02-03T06:11:47;4.50;99.90
46590;DHT22;32313;48.722;9.362;2023-02-03T06:14:12;4.60;99.90
46590;DHT22;32313;48.722;9.362;2023-02-03T06:16:38;4.60;99.90
46590;DHT22;32313;48.722;9.362;2023-02-03T06:19:03;4.60;99.90
46590;DHT22;32313;48.722;9.362;2023-02-03T06:21:29;4.60;99.90
46590;DHT22;32313;48.722;9.362;2023-02-03T06:23:55;4.60;99.90
46590;DHT22;32313;48.722;9.362;2023-02-03T06:26:21;4.60;99.90
46590;DHT22;32313;48.722;9.362;2023-02-03T06:28:46;4.60;99.90
46590;DHT22;32313;48.722;9.362;2023-02-03T06:31:12;4.60;99.90
46590;DHT22;32313;48.722;9.362;2023-02-03T06:33:38;4.60;99.90
46590;DHT22;32313;48.722;9.362;2023-02-03T06:36:04;4.60;99.90
46590;DHT22;32313;48.722;9.362;2023-02-03T06:38:29;4.60;99.90
46590;DHT22;32313;48.722;9.362;2023-02-03T06:40:55;4.60;99.90
46590;DHT22;32313;48.722;9.362;2023-02-03T06:43:21;4.60;99.90
46590;DHT22;32313;48.722;9.362;2023-02-03T06:45:46;4.60;99.90
46590;DHT22;32313;48.722;9.362;2023-02-03T06:48:13;4.60;99.90
46590;DHT22;32313;48.722;9.362;2023-02-03T06:50:39;4.60;99.90
46590;DHT22;32313;48.722;9.362;2023-02-03T06:53:04;4.60;99.90
46590;DHT22;32313;48.722;9.362;2023-02-03T06:55:30;4.60;99.90
46590;DHT22;32313;48.722;9.362;2023-02-03T06:57:56;4.60;99.90
46590;DHT22;32313;48.722;9.362;2023-02-03T07:00:21;4.60;99.90
46590;DHT22;32313;48.722;9.362;2023-02-03T07:02:53;4.50;99.90
46590;DHT22;32313;48.722;9.362;2023-02-03T07:05:20;4.60;99.90
46590;DHT22;32313;48.722;9.362;2023-02-03T07:07:45;4.60;99.90
46590;DHT22;32313;48.722;9.362;2023-02-03T07:10:11;4.70;99.90
46590;DHT22;32313;48.722;9.362;2023-02-03T07:12:37;4.60;99.90
46590;DHT22;32313;48.722;9.362;2023-02-03T07:15:03;4.70;99.90
46590;DHT22;32313;48.722;9.362;2023-02-03T07:17:29;4.70;99.90
46590;DHT22;32313;48.722;9.362;2023-02-03T07:19:55;4.70;99.90
46590;DHT22;32313;48.722;9.362;2023-02-03T07:22:20;4.70;99.90
46590;DHT22;32313;48.722;9.362;2023-02-03T07:24:46;4.70;99.90
46590;DHT22;32313;48.722;9.362;2023-02-03T07:27:11;4.70;99.90
46590;DHT22;32313;48.722;9.362;2023-02-03T07:29:37;4.70;99.90
46590;DHT22;32313;48.722;9.362;2023-02-03T07:32:03;4.70;99.90
46590;DHT22;32313;48.722;9.362;2023-02-03T07:34:29;4.70;99.90
46590;DHT22;32313;48.722;9.362;2023-02-03T07:36:55;4.70;99.90
46590;DHT22;32313;48.722;9.362;2023-02-03T07:39:21;4.80;99.90
46590;DHT22;32313;48.722;9.362;2023-02-03T07:41:46;4.90;99.90
46590;DHT22;32313;48.722;9.362;2023-02-03T07:44:12;4.90;99.90
46590;DHT22;32313;48.722;9.362;2023-02-03T07:46:38;4.90;99.90
46590;DHT22;32313;48.722;9.362;2023-02-03T07:49:10;4.90;99.90
46590;DHT22;32313;48.722;9.362;2023-02-03T07:51:35;4.90;99.90
46590;DHT22;32313;48.722;9.362;2023-02-03T07:54:01;4.90;99.90
46590;DHT22;32313;48.722;9.362;2023-02-03T07:56:27;4.90;99.90
46590;DHT22;32313;48.722;9.362;2023-02-03T07:58:54;4.90;99.90
46590;DHT22;32313;48.722;9.362;2023-02-03T08:01:19;4.90;99.90
46590;DHT22;32313;48.722;9.362;2023-02-03T08:03:46;4.90;99.90
46590;DHT22;32313;48.722;9.362;2023-02-03T08:06:11;4.90;99.90
46590;DHT22;32313;48.722;9.362;2023-02-03T08:08:37;4.80;99.90
46590;DHT22;32313;48.722;9.362;2023-02-03T08:11:03;4.90;99.90
46590;DHT22;32313;48.722;9.362;2023-02-03T08:13:28;4.90;99.90
46590;DHT22;32313;48.722;9.362;2023-02-03T08:15:54;4.90;99.90
46590;DHT22;32313;48.722;9.362;2023-02-03T08:18:20;4.90;99.90
46590;DHT22;32313;48.722;9.362;2023-02-03T08:20:46;5.00;99.90
46590;DHT22;32313;48.722;9.362;2023-02-03T08:23:12;5.00;99.90
46590;DHT22;32313;48.722;9.362;2023-02-03T08:25:38;5.10;99.90
46590;DHT22;32313;48.722;9.362;2023-02-03T08:28:04;5.20;99.90
46590;DHT22;32313;48.722;9.362;2023-02-03T08:30:30;5.20;99.90
46590;DHT22;32313;48.722;9.362;2023-02-03T08:32:56;5.20;99.90
46590;DHT22;32313;48.722;9.362;2023-02-03T08:35:22;5.20;99.90
46590;DHT22;32313;48.722;9.362;2023-02-03T08:37:48;5.20;99.90
46590;DHT22;32313;48.722;9.362;2023-02-03T08:40:15;5.20;99.90
46590;DHT22;32313;48.722;9.362;2023-02-03T08:42:41;5.20;99.90
46590;DHT22;32313;48.722;9.362;2023-02-03T08:45:07;5.30;99.90
46590;DHT22;32313;48.722;9.362;2023-02-03T08:47:33;5.30;99.90
46590;DHT22;32313;48.722;9.362;2023-02-03T08:50:02;5.30;99.90
46590;DHT22;32313;48.722;9.362;2023-02-03T08:52:28;5.30;99.90
46590;DHT22;32313;48.722;9.362;2023-02-03T08:54:53;5.30;99.90
46590;DHT22;32313;48.722;9.362;2023-02-03T08:57:19;5.30;99.90
46590;DHT22;32313;48.722;9.362;2023-02-03T08:59:45;5.40;99.90
46590;DHT22;32313;48.722;9.362;2023-02-03T09:02:15;5.50;99.90
46590;DHT22;32313;48.722;9.362;2023-02-03T09:04:41;5.60;99.90
46590;DHT22;32313;48.722;9.362;2023-02-03T09:07:07;5.60;99.90
46590;DHT22;32313;48.722;9.362;2023-02-03T09:09:33;5.60;99.90
46590;DHT22;32313;48.722;9.362;2023-02-03T09:11:59;5.60;99.90
46590;DHT22;32313;48.722;9.362;2023-02-03T09:14:31;5.60;99.90
46590;DHT22;32313;48.722;9.362;2023-02-03T09:16:59;5.70;99.90
46590;DHT22;32313;48.722;9.362;2023-02-03T09:19:24;5.80;99.90
46590;DHT22;32313;48.722;9.362;2023-02-03T09:21:50;5.80;99.90
46590;DHT22;32313;48.722;9.362;2023-02-03T09:24:16;5.90;99.90
46590;DHT22;32313;48.722;9.362;2023-02-03T09:26:43;5.90;99.90
46590;DHT22;32313;48.722;9.362;2023-02-03T09:29:08;5.90;99.90
46590;DHT22;32313;48.722;9.362;2023-02-03T09:31:34;6.10;99.90
46590;DHT22;32313;48.722;9.362;2023-02-03T09:34:00;6.30;99.90
46590;DHT22;32313;48.722;9.362;2023-02-03T09:36:26;6.50;99.90
46590;DHT22;32313;48.722;9.362;2023-02-03T09:38:51;6.50;99.90
46590;DHT22;32313;48.722;9.362;2023-02-03T09:44:26;6.50;99.90
46590;DHT22;32313;48.722;9.362;2023-02-03T09:46:59;6.50;99.90
46590;DHT22;32313;48.722;9.362;2023-02-03T09:52:22;6.60;99.90
46590;DHT22;32313;48.722;9.362;2023-02-03T09:57:43;6.80;99.90
46590;DHT22;32313;48.722;9.362;2023-02-03T10:00:24;6.90;99.90
46590;DHT22;32313;48.722;9.362;2023-02-03T10:11:55;6.80;99.90
46590;DHT22;32313;48.722;9.362;2023-02-03T10:17:17;6.90;99.90
46590;DHT22;32313;48.722;9.362;2023-02-03T10:22:27;6.90;99.90
46590;DHT22;32313;48.722;9.362;2023-02-03T10:24:59;6.90;99.90
46590;DHT22;32313;48.722;9.362;2023-02-03T10:27:28;7.30;99.90
46590;DHT22;32313;48.722;9.362;2023-02-03T10:30:05;7.40;99.90
46590;DHT22;32313;48.722;9.362;2023-02-03T10:32:35;7.30;99.90
46590;DHT22;32313;48.722;9.362;2023-02-03T10:35:02;7.20;99.90
46590;DHT22;32313;48.722;9.362;2023-02-03T10:37:36;7.20;99.90
46590;DHT22;32313;48.722;9.362;2023-02-03T10:40:11;7.20;99.90
46590;DHT22;32313;48.722;9.362;2023-02-03T10:42:38;7.20;99.90
46590;DHT22;32313;48.722;9.362;2023-02-03T10:45:22;7.10;99.90
46590;DHT22;32313;48.722;9.362;2023-02-03T10:47:50;7.00;99.90
46590;DHT22;32313;48.722;9.362;2023-02-03T10:50:25;6.90;99.90
46590;DHT22;32313;48.722;9.362;2023-02-03T10:53:19;6.80;99.90
46590;DHT22;32313;48.722;9.362;2023-02-03T10:55:49;6.80;99.90
46590;DHT22;32313;48.722;9.362;2023-02-03T10:58:29;6.80;99.90
46590;DHT22;32313;48.722;9.362;2023-02-03T11:03:33;7.10;99.90
46590;DHT22;32313;48.722;9.362;2023-02-03T11:06:13;7.10;99.90
46590;DHT22;32313;48.722;9.362;2023-02-03T11:08:44;7.20;99.90
46590;DHT22;32313;48.722;9.362;2023-02-03T11:14:15;7.70;99.90
46590;DHT22;32313;48.722;9.362;2023-02-03T11:16:39;8.00;99.90
46590;DHT22;32313;48.722;9.362;2023-02-03T11:19:19;8.30;99.90
46590;DHT22;32313;48.722;9.362;2023-02-03T11:21:48;8.30;99.90
46590;DHT22;32313;48.722;9.362;2023-02-03T11:24:30;8.20;99.90
46590;DHT22;32313;48.722;9.362;2023-02-03T11:27:02;7.90;99.90
46590;DHT22;32313;48.722;9.362;2023-02-03T11:29:33;7.80;99.90
46590;DHT22;32313;48.722;9.362;2023-02-03T11:32:29;7.70;99.90
46590;DHT22;32313;48.722;9.362;2023-02-03T11:42:35;7.10;99.90
46590;DHT22;32313;48.722;9.362;2023-02-03T11:45:14;6.90;99.90
46590;DHT22;32313;48.722;9.362;2023-02-03T11:47:47;6.90;99.90
46590;DHT22;32313;48.722;9.362;2023-02-03T11:58:59;6.80;99.90
46590;DHT22;32313;48.722;9.362;2023-02-03T12:07:21;6.60;99.90
46590;DHT22;32313;48.722;9.362;2023-02-03T12:15:41;6.60;99.90
46590;DHT22;32313;48.722;9.362;2023-02-03T12:18:39;6.60;99.90
46590;DHT22;32313;48.722;9.362;2023-02-03T12:23:59;6.60;99.90
46590;DHT22;32313;48.722;9.362;2023-02-03T12:26:36;6.60;99.90
46590;DHT22;32313;48.722;9.362;2023-02-03T12:29:08;6.60;99.90
46590;DHT22;32313;48.722;9.362;2023-02-03T12:32:08;6.60;99.90
46590;DHT22;32313;48.722;9.362;2023-02-03T12:37:57;6.60;99.90
46590;DHT22;32313;48.722;9.362;2023-02-03T12:40:41;6.70;99.90
46590;DHT22;32313;48.722;9.362;2023-02-03T12:46:00;6.70;99.90
46590;DHT22;32313;48.722;9.362;2023-02-03T12:51:09;6.80;99.90
46590;DHT22;32313;48.722;9.362;2023-02-03T12:53:40;6.80;99.90
46590;DHT22;32313;48.722;9.362;2023-02-03T12:56:13;6.80;99.90
46590;DHT22;32313;48.722;9.362;2023-02-03T12:58:48;6.90;99.90
46590;DHT22;32313;48.722;9.362;2023-02-03T13:03:54;6.90;99.90
46590;DHT22;32313;48.722;9.362;2023-02-03T13:06:31;7.00;99.90
46590;DHT22;32313;48.722;9.362;2023-02-03T13:11:41;7.00;99.90
46590;DHT22;32313;48.722;9.362;2023-02-03T13:16:58;6.90;99.90
46590;DHT22;32313;48.722;9.362;2023-02-03T13:19:40;6.90;99.90
46590;DHT22;32313;48.722;9.362;2023-02-03T13:22:12;6.90;99.90
46590;DHT22;32313;48.722;9.362;2023-02-03T13:24:41;6.90;99.90
46590;DHT22;32313;48.722;9.362;2023-02-03T13:38:28;7.00;99.90
46590;DHT22;32313;48.722;9.362;2023-02-03T13:41:18;6.90;99.90
46590;DHT22;32313;48.722;9.362;2023-02-03T13:43:49;7.00;99.90
46590;DHT22;32313;48.722;9.362;2023-02-03T13:46:29;7.00;99.90
46590;DHT22;32313;48.722;9.362;2023-02-03T13:48:58;7.00;99.90
46590;DHT22;32313;48.722;9.362;2023-02-03T13:51:37;7.00;99.90
46590;DHT22;32313;48.722;9.362;2023-02-03T13:54:15;7.10;99.90
46590;DHT22;32313;48.722;9.362;2023-02-03T13:56:58;7.10;99.90
46590;DHT22;32313;48.722;9.362;2023-02-03T13:59:29;7.10;99.90
46590;DHT22;32313;48.722;9.362;2023-02-03T14:04:53;7.10;99.90
46590;DHT22;32313;48.722;9.362;2023-02-03T14:07:35;7.00;99.90
46590;DHT22;32313;48.722;9.362;2023-02-03T14:12:53;7.10;99.90
46590;DHT22;32313;48.722;9.362;2023-02-03T14:15:30;7.10;99.90
46590;DHT22;32313;48.722;9.362;2023-02-03T14:17:57;7.10;99.90
46590;DHT22;32313;48.722;9.362;2023-02-03T14:22:53;7.10;99.90
46590;DHT22;32313;48.722;9.362;2023-02-03T14:25:20;7.10;99.90
46590;DHT22;32313;48.722;9.362;2023-02-03T14:27:47;7.20;99.90
46590;DHT22;32313;48.722;9.362;2023-02-03T14:30:23;7.20;99.90
46590;DHT22;32313;48.722;9.362;2023-02-03T14:32:55;7.20;99.90
46590;DHT22;32313;48.722;9.362;2023-02-03T14:35:28;7.20;99.90
46590;DHT22;32313;48.722;9.362;2023-02-03T14:37:59;7.20;99.90
46590;DHT22;32313;48.722;9.362;2023-02-03T14:43:16;7.20;99.90
46590;DHT22;32313;48.722;9.362;2023-02-03T14:46:10;7.20;99.90
46590;DHT22;32313;48.722;9.362;2023-02-03T15:02:24;7.20;99.90
46590;DHT22;32313;48.722;9.362;2023-02-03T15:07:48;7.20;99.90
46590;DHT22;32313;48.722;9.362;2023-02-03T15:12:45;7.20;99.90
46590;DHT22;32313;48.722;9.362;2023-02-03T15:15:27;7.20;99.90
46590;DHT22;32313;48.722;9.362;2023-02-03T15:17:55;7.20;99.90
46590;DHT22;32313;48.722;9.362;2023-02-03T15:20:26;7.20;99.90
46590;DHT22;32313;48.722;9.362;2023-02-03T15:22:53;7.20;99.90
46590;DHT22;32313;48.722;9.362;2023-02-03T15:25:21;7.20;99.90
46590;DHT22;32313;48.722;9.362;2023-02-03T15:27:50;7.20;99.90
46590;DHT22;32313;48.722;9.362;2023-02-03T15:30:17;7.20;99.90
46590;DHT22;32313;48.722;9.362;2023-02-03T15:32:52;7.10;99.90
46590;DHT22;32313;48.722;9.362;2023-02-03T15:35:20;7.10;99.90
46590;DHT22;32313;48.722;9.362;2023-02-03T15:37:53;7.10;99.90
46590;DHT22;32313;48.722;9.362;2023-02-03T15:40:22;7.10;99.90
46590;DHT22;32313;48.722;9.362;2023-02-03T15:45:37;7.00;99.90
46590;DHT22;32313;48.722;9.362;2023-02-03T15:48:21;7.00;99.90
46590;DHT22;32313;48.722;9.362;2023-02-03T15:51:18;7.00;99.90
46590;DHT22;32313;48.722;9.362;2023-02-03T15:56:21;6.90;99.90
46590;DHT22;32313;48.722;9.362;2023-02-03T15:58:48;6.90;99.90
46590;DHT22;32313;48.722;9.362;2023-02-03T16:01:14;6.90;99.90
46590;DHT22;32313;48.722;9.362;2023-02-03T16:03:49;6.90;99.90
46590;DHT22;32313;48.722;9.362;2023-02-03T16:06:27;6.90;99.90
46590;DHT22;32313;48.722;9.362;2023-02-03T16:08:56;6.80;99.90
46590;DHT22;32313;48.722;9.362;2023-02-03T16:11:26;6.80;99.90
46590;DHT22;32313;48.722;9.362;2023-02-03T16:13:53;6.80;99.90
46590;DHT22;32313;48.722;9.362;2023-02-03T16:19:09;6.80;99.90
46590;DHT22;32313;48.722;9.362;2023-02-03T16:21:58;6.80;99.90
46590;DHT22;32313;48.722;9.362;2023-02-03T16:24:41;6.80;99.90
46590;DHT22;32313;48.722;9.362;2023-02-03T16:30:19;6.70;99.90
46590;DHT22;32313;48.722;9.362;2023-02-03T16:33:13;6.70;99.90
46590;DHT22;32313;48.722;9.362;2023-02-03T16:36:10;6.60;99.90
46590;DHT22;32313;48.722;9.362;2023-02-03T16:38:57;6.60;99.90
46590;DHT22;32313;48.722;9.362;2023-02-03T16:41:41;6.60;99.90
46590;DHT22;32313;48.722;9.362;2023-02-03T16:44:26;6.60;99.90
46590;DHT22;32313;48.722;9.362;2023-02-03T16:47:30;6.60;99.90
46590;DHT22;32313;48.722;9.362;2023-02-03T16:50:20;6.50;99.90
46590;DHT22;32313;48.722;9.362;2023-02-03T16:53:12;6.50;99.90
46590;DHT22;32313;48.722;9.362;2023-02-03T16:55:38;6.50;99.90
46590;DHT22;32313;48.722;9.362;2023-02-03T16:58:04;6.50;99.90
46590;DHT22;32313;48.722;9.362;2023-02-03T17:00:30;6.50;99.90
46590;DHT22;32313;48.722;9.362;2023-02-03T17:02:56;6.50;99.90
46590;DHT22;32313;48.722;9.362;2023-02-03T17:05:21;6.50;99.90
46590;DHT22;32313;48.722;9.362;2023-02-03T17:07:47;6.50;99.90
46590;DHT22;32313;48.722;9.362;2023-02-03T17:10:14;6.50;99.90
46590;DHT22;32313;48.722;9.362;2023-02-03T17:12:39;6.40;99.90
46590;DHT22;32313;48.722;9.362;2023-02-03T17:15:06;6.40;99.90
46590;DHT22;32313;48.722;9.362;2023-02-03T17:17:32;6.40;99.90
46590;DHT22;32313;48.722;9.362;2023-02-03T17:19:57;6.40;99.90
46590;DHT22;32313;48.722;9.362;2023-02-03T17:22:24;6.40;99.90
46590;DHT22;32313;48.722;9.362;2023-02-03T17:24:51;6.40;99.90
46590;DHT22;32313;48.722;9.362;2023-02-03T17:27:17;6.40;99.90
46590;DHT22;32313;48.722;9.362;2023-02-03T17:29:42;6.40;99.90
46590;DHT22;32313;48.722;9.362;2023-02-03T17:32:08;6.40;99.90
46590;DHT22;32313;48.722;9.362;2023-02-03T17:34:36;6.30;99.90
46590;DHT22;32313;48.722;9.362;2023-02-03T17:37:02;6.30;99.90
46590;DHT22;32313;48.722;9.362;2023-02-03T17:39:28;6.30;99.90
46590;DHT22;32313;48.722;9.362;2023-02-03T17:41:53;6.30;99.90
46590;DHT22;32313;48.722;9.362;2023-02-03T17:44:19;6.30;99.90
46590;DHT22;32313;48.722;9.362;2023-02-03T17:46:45;6.40;99.90
46590;DHT22;32313;48.722;9.362;2023-02-03T17:49:10;6.40;99.90
46590;DHT22;32313;48.722;9.362;2023-02-03T17:51:36;6.40;99.90
46590;DHT22;32313;48.722;9.362;2023-02-03T17:54:02;6.40;99.90
46590;DHT22;32313;48.722;9.362;2023-02-03T17:56:32;6.40;99.90
46590;DHT22;32313;48.722;9.362;2023-02-03T17:58:59;6.40;99.90
46590;DHT22;32313;48.722;9.362;2023-02-03T18:01:25;6.40;99.90
46590;DHT22;32313;48.722;9.362;2023-02-03T18:03:54;6.40;99.90
46590;DHT22;32313;48.722;9.362;2023-02-03T18:06:22;6.40;99.90
46590;DHT22;32313;48.722;9.362;2023-02-03T18:08:49;6.40;99.90
46590;DHT22;32313;48.722;9.362;2023-02-03T18:11:16;6.50;99.90
46590;DHT22;32313;48.722;9.362;2023-02-03T18:13:43;6.50;99.90
46590;DHT22;32313;48.722;9.362;2023-02-03T18:16:22;6.50;99.90
46590;DHT22;32313;48.722;9.362;2023-02-03T18:18:51;6.50;99.90
46590;DHT22;32313;48.722;9.362;2023-02-03T18:21:18;6.50;99.90
46590;DHT22;32313;48.722;9.362;2023-02-03T18:23:44;6.50;99.90
46590;DHT22;32313;48.722;9.362;2023-02-03T18:26:12;6.50;99.90
46590;DHT22;32313;48.722;9.362;2023-02-03T18:28:38;6.50;99.90
46590;DHT22;32313;48.722;9.362;2023-02-03T18:31:12;6.60;99.90
46590;DHT22;32313;48.722;9.362;2023-02-03T18:33:40;6.50;99.90